Forside
METAR-TAF:

METAR-TAF

Lufthavne :

Ben Gurion International Airport

Tel Aviv / Ben Gurion, Israel

Breddekreds: 32-00N, længdekreds: 034-54E, højde: 40 m

Aktuelle vejr

Denne rapport blev lavet for 31 minutter siden, kl. 00:20 UTC
Vind 1 kt fra varierende retninger
Temperatur 9°C
Fugtighed 87%
Tryk 1019 hPa
Sigt 10 km eller mere
ingen skyer under 1500m og ingen cumulonimbus

METAR: LLBG 240020Z VRB01KT CAVOK 09/07 Q1019 NOSIG

Tid: 02:51 (00:51 UTC)

Vejrudsigter

Denne rapport blev lavet for 1 time og 36 minutter siden, kl. 23:15 UTC
Foreløbig gælder fra 24 på 00 UTC til 24 på 24 UTC
Vind 3 kt fra varierende retninger
Sigt 10 km eller mere
ingen skyer under 1500m og ingen cumulonimbus
ændring
fra 24 på 07 UTC til 24 på 09 UTC
Vind 8 kt fra vestnordvest
ændring
fra 24 på 15 UTC til 24 på 17 UTC
Vind 5 kt fra nord

TAF: LLBG 232315Z 2400/2424 VRB03KT CAVOK BECMG 2407/2409 29008KT BECMG 2415/2417 01005KT TX21/2412Z TN07/2403Z

Vejrobservationer og prognoser fra mere end 4000 lufthavne (METAR og TAF).

De gule og røde prikker repræsenterer de meteorologiske stationer.

Flyt musen over at se navnet på stationen.

Så klik over at se vejr observationer og prognoser.

At skifte det kort: Klik på de grønne knapper med et sort kors for at zoome ind; på den grønne knap med en bindestreg for at zoome ud; eller på de grønne pile for tilstødende kort.


METAR-TAF: